Bondsville, Massachusetts
Current Conditions -  °F | °C
As of 2:58 PM on Monday 26 Jan 2015 (Local Time) from KCEF Reporting Station
Light Snow Light Snow  
Wind Chill: 13°   Ceiling: 2600
Heat Index: 22°   Visibility: 9mi
Dew Point: 13°   Wind: 8mph
Humidity: 68%   Direction: 80°E
Pressure: 30"   Gusts: NA
Location:  42.21°N, 72.34°W
Report Text: KCEF 261958Z 08007KT 9SM -SN BKN026 OVC048 M05/M10 A3000 RMK AO2A SLP169 P0000 60000 T10531103
Loading
Personal Weather Stations






























Interactive Weather Map New forecast layout! Learn more

10-Day Weather Forecast

Advertisements
Track Severe Weather on mobile